createdAt,value
2022-11-05T00:02:52.859Z,97306.03
2022-11-05T00:05:35.346Z,97306.59
2022-11-05T00:08:25.604Z,97311.44
2022-11-05T00:10:55.741Z,97325.47
2022-11-05T00:13:38.192Z,97326.88
2022-11-05T00:16:20.845Z,97333.16
2022-11-05T00:19:05.824Z,97337.28
2022-11-05T00:21:48.553Z,97325.84
2022-11-05T00:24:31.129Z,97329.19
2022-11-05T00:27:01.161Z,97341.19
2022-11-05T00:29:31.380Z,97334.16
2022-11-05T00:32:01.524Z,97336.44
2022-11-05T00:34:34.176Z,97336.53
2022-11-05T00:37:04.346Z,97331.09
2022-11-05T00:39:34.510Z,97331.38
2022-11-05T00:42:17.006Z,97335.22
2022-11-05T00:44:59.551Z,97337.78
2022-11-05T00:47:42.060Z,97341.00
2022-11-05T00:50:14.832Z,97344.44
2022-11-05T00:52:57.618Z,97352.94
2022-11-05T00:55:33.427Z,97351.03
2022-11-05T00:58:05.629Z,97355.72
2022-11-05T01:00:38.309Z,97372.56
2022-11-05T01:03:11.318Z,97365.72
2022-11-05T01:05:47.336Z,97370.84
2022-11-05T01:08:20.071Z,97375.06
2022-11-05T01:10:53.973Z,97370.88
2022-11-05T01:13:28.428Z,97378.03
2022-11-05T01:15:59.523Z,97375.63
2022-11-05T01:18:29.365Z,97383.06
2022-11-05T01:21:02.022Z,97372.38
2022-11-05T01:23:32.161Z,97379.91
2022-11-05T01:26:02.192Z,97381.81
2022-11-05T01:28:32.583Z,97390.03
2022-11-05T01:31:02.894Z,97387.19
2022-11-05T01:33:33.002Z,97392.69
2022-11-05T01:36:08.252Z,97401.38
2022-11-05T01:38:38.292Z,97397.56
2022-11-05T01:41:09.578Z,97404.91
2022-11-05T01:43:51.764Z,97406.53
2022-11-05T01:46:26.183Z,97409.00
2022-11-05T01:49:03.150Z,97417.19
2022-11-05T01:51:36.445Z,97415.69
2022-11-05T01:54:09.739Z,97417.38
2022-11-05T01:56:45.935Z,97418.25
2022-11-05T01:59:21.748Z,97420.53
2022-11-05T02:01:52.262Z,97413.16
2022-11-05T02:04:30.829Z,97412.06
2022-11-05T02:07:03.919Z,97409.56
2022-11-05T02:09:39.852Z,97405.00
2022-11-05T02:12:10.705Z,97415.41
2022-11-05T02:14:40.846Z,97416.66
2022-11-05T02:17:21.874Z,97422.25
2022-11-05T02:20:26.498Z,97415.28
2022-11-05T02:23:37.894Z,97424.09
2022-11-05T02:26:34.611Z,97421.13
2022-11-05T02:29:45.890Z,97436.19
2022-11-05T02:32:34.070Z,97438.19
2022-11-05T02:35:25.906Z,97443.63
2022-11-05T02:38:03.239Z,97437.63
2022-11-05T02:40:46.946Z,97453.44
2022-11-05T02:43:26.993Z,97463.09
2022-11-05T02:46:06.585Z,97460.16
2022-11-05T02:48:49.466Z,97456.31
2022-11-05T02:51:26.732Z,97456.63
2022-11-05T02:54:04.939Z,97457.56
2022-11-05T02:56:39.900Z,97459.75
2022-11-05T02:59:09.942Z,97460.16
2022-11-05T03:01:42.672Z,97460.72
2022-11-05T03:04:20.055Z,97467.56
2022-11-05T03:07:07.372Z,97468.81
2022-11-05T03:10:20.468Z,97467.00
2022-11-05T03:13:05.215Z,97473.09
2022-11-05T03:15:51.504Z,97474.16
2022-11-05T03:18:29.407Z,97472.94
2022-11-05T03:21:09.278Z,97471.31
2022-11-05T03:23:45.896Z,97477.09
2022-11-05T03:26:22.273Z,97476.53
2022-11-05T03:28:58.922Z,97478.19
2022-11-05T03:31:32.664Z,97490.75
2022-11-05T03:34:04.519Z,97483.50
2022-11-05T03:36:41.354Z,97485.81
2022-11-05T03:39:18.723Z,97490.47
2022-11-05T03:41:54.064Z,97491.72
2022-11-05T03:44:30.166Z,97480.44
2022-11-05T03:47:06.370Z,97489.41
2022-11-05T03:49:42.073Z,97498.19
2022-11-05T03:52:19.447Z,97505.53
2022-11-05T03:54:50.266Z,97502.78
2022-11-05T03:57:25.948Z,97507.25
2022-11-05T03:59:56.039Z,97504.59
2022-11-05T04:02:28.710Z,97505.75
2022-11-05T04:04:58.996Z,97508.50
2022-11-05T04:07:44.118Z,97518.50
2022-11-05T04:10:32.905Z,97519.13
2022-11-05T04:13:15.387Z,97518.03
2022-11-05T04:15:57.664Z,97518.16
2022-11-05T04:18:27.856Z,97527.41
2022-11-05T04:21:10.276Z,97535.81
2022-11-05T04:23:55.388Z,97536.19
2022-11-05T04:26:25.444Z,97542.09
2022-11-05T04:29:08.249Z,97543.31
2022-11-05T04:31:38.404Z,97545.81
2022-11-05T04:34:09.087Z,97540.28
2022-11-05T04:36:39.174Z,97545.03
2022-11-05T04:39:12.114Z,97543.72
2022-11-05T04:41:42.341Z,97538.16
2022-11-05T04:44:12.476Z,97542.75
2022-11-05T04:46:42.489Z,97548.28
2022-11-05T04:49:12.548Z,97551.50
2022-11-05T04:51:42.654Z,97552.09
2022-11-05T04:54:15.384Z,97553.34
2022-11-05T04:56:45.446Z,97553.81
2022-11-05T04:59:15.503Z,97558.56
2022-11-05T05:01:45.624Z,97555.91
2022-11-05T05:04:15.986Z,97568.22
2022-11-05T05:06:46.069Z,97566.97
2022-11-05T05:09:19.005Z,97554.56
2022-11-05T05:11:49.123Z,97559.34
2022-11-05T05:14:19.282Z,97569.28
2022-11-05T05:16:49.418Z,97574.50
2022-11-05T05:19:19.511Z,97570.81
2022-11-05T05:21:47.040Z,97582.16
2022-11-05T05:24:25.051Z,97582.53
2022-11-05T05:26:55.244Z,97588.75
2022-11-05T05:29:25.292Z,97602.50
2022-11-05T05:31:55.288Z,97607.88
2022-11-05T05:34:25.385Z,97610.63
2022-11-05T05:36:55.475Z,97613.56
2022-11-05T05:39:28.144Z,97613.00
2022-11-05T05:41:58.244Z,97618.63
2022-11-05T05:44:28.358Z,97618.31
2022-11-05T05:46:58.399Z,97619.66
2022-11-05T05:49:28.454Z,97625.84
2022-11-05T05:51:58.529Z,97626.03
2022-11-05T05:54:34.208Z,97627.84
2022-11-05T05:57:06.929Z,97626.03
2022-11-05T05:59:37.223Z,97625.94
2022-11-05T06:02:07.427Z,97629.28
2022-11-05T06:04:37.589Z,97638.09
2022-11-05T06:07:07.803Z,97644.88
2022-11-05T06:09:40.482Z,97647.34
2022-11-05T06:12:10.866Z,97662.69
2022-11-05T06:14:40.997Z,97660.81
2022-11-05T06:17:11.517Z,97668.81
2022-11-05T06:19:41.597Z,97670.84
2022-11-05T06:22:11.812Z,97672.34
2022-11-05T06:24:44.619Z,97675.28
2022-11-05T06:27:14.714Z,97687.78
2022-11-05T06:29:44.770Z,97693.00
2022-11-05T06:32:14.831Z,97688.06
2022-11-05T06:34:44.875Z,97698.50
2022-11-05T06:37:14.932Z,97702.38
2022-11-05T06:39:47.644Z,97706.66
2022-11-05T06:42:18.964Z,97705.72
2022-11-05T06:44:49.844Z,97713.06
2022-11-05T06:47:20.037Z,97714.72
2022-11-05T06:49:50.314Z,97716.91
2022-11-05T06:52:20.735Z,97714.59
2022-11-05T06:54:53.536Z,97723.97
2022-11-05T06:57:23.650Z,97723.91
2022-11-05T06:59:59.975Z,97723.03
2022-11-05T07:02:31.632Z,97724.09
2022-11-05T07:05:01.676Z,97729.31
2022-11-05T07:07:31.846Z,97733.31
2022-11-05T07:10:04.702Z,97743.13
2022-11-05T07:12:34.829Z,97745.88
2022-11-05T07:15:04.970Z,97746.16
2022-11-05T07:17:35.280Z,97740.75
2022-11-05T07:20:06.080Z,97745.69
2022-11-05T07:22:36.280Z,97750.56
2022-11-05T07:25:10.517Z,97757.56
2022-11-05T07:27:41.830Z,97767.66
2022-11-05T07:30:13.616Z,97771.38
2022-11-05T07:32:44.207Z,97769.84
2022-11-05T07:35:14.342Z,97777.03
2022-11-05T07:37:48.320Z,97766.28
2022-11-05T07:40:22.502Z,97782.13
2022-11-05T07:42:54.749Z,97788.69
2022-11-05T07:45:26.263Z,97791.47
2022-11-05T07:47:58.899Z,97809.50
2022-11-05T07:50:31.400Z,97801.88
2022-11-05T07:53:05.658Z,97806.31
2022-11-05T07:55:40.363Z,97800.00
2022-11-05T07:58:10.563Z,97801.50
2022-11-05T08:00:40.966Z,97794.72
2022-11-05T08:03:15.066Z,97798.38
2022-11-05T08:05:48.982Z,97809.44
2022-11-05T08:08:21.037Z,97803.38
2022-11-05T08:10:53.801Z,97806.50
2022-11-05T08:13:23.899Z,97811.34
2022-11-05T08:15:53.945Z,97814.88
2022-11-05T08:18:24.023Z,97823.81
2022-11-05T08:20:54.102Z,97825.69
2022-11-05T08:23:24.134Z,97825.69
2022-11-05T08:25:57.337Z,97829.34
2022-11-05T08:28:29.260Z,97832.53
2022-11-05T08:31:00.785Z,97833.28
2022-11-05T08:33:31.653Z,97836.06
2022-11-05T08:36:06.030Z,97838.84
2022-11-05T08:38:36.260Z,97840.84
2022-11-05T08:41:09.240Z,97841.41
2022-11-05T08:43:40.111Z,97838.94
2022-11-05T08:46:10.582Z,97845.66
2022-11-05T08:48:40.754Z,97846.59
2022-11-05T08:51:10.830Z,97847.84
2022-11-05T08:53:40.904Z,97842.41
2022-11-05T08:56:13.714Z,97838.97
2022-11-05T08:58:43.909Z,97845.38
2022-11-05T09:01:14.077Z,97841.34
2022-11-05T09:03:44.244Z,97846.44
2022-11-05T09:06:14.664Z,97837.81
2022-11-05T09:08:44.920Z,97841.47
2022-11-05T09:11:18.327Z,97844.78
2022-11-05T09:13:48.679Z,97843.03
2022-11-05T09:16:23.463Z,97842.44
2022-11-05T09:18:53.663Z,97846.56
2022-11-05T09:21:23.746Z,97845.56
2022-11-05T09:23:54.423Z,97838.06
2022-11-05T09:26:27.294Z,97849.03
2022-11-05T09:28:57.405Z,97862.00
2022-11-05T09:31:27.494Z,97868.53
2022-11-05T09:33:57.597Z,97870.72
2022-11-05T09:36:27.651Z,97867.41
2022-11-05T09:38:57.716Z,97859.97
2022-11-05T09:41:33.910Z,97858.97
2022-11-05T09:44:07.452Z,97867.34
2022-11-05T09:46:49.138Z,97874.34
2022-11-05T09:49:29.357Z,97875.47
2022-11-05T09:52:01.334Z,97878.88
2022-11-05T09:54:34.488Z,97883.47
2022-11-05T09:57:14.446Z,97886.41
2022-11-05T09:59:50.118Z,97888.63
2022-11-05T10:02:24.322Z,97893.94
2022-11-05T10:05:09.187Z,97894.66
2022-11-05T10:07:48.223Z,97896.19
2022-11-05T10:10:37.871Z,97894.75
2022-11-05T10:13:25.050Z,97898.59
2022-11-05T10:16:04.468Z,97895.53
2022-11-05T10:18:38.355Z,97889.09
2022-11-05T10:21:09.945Z,97896.78
2022-11-05T10:23:40.102Z,97883.63
2022-11-05T10:26:15.033Z,97902.47
2022-11-05T10:28:47.738Z,97901.75
2022-11-05T10:31:21.394Z,97895.16
2022-11-05T10:33:56.086Z,97886.88
2022-11-05T10:36:29.122Z,97899.63
2022-11-05T10:39:04.563Z,97912.88
2022-11-05T10:42:00.650Z,97905.81
2022-11-05T10:44:42.713Z,97910.78
2022-11-05T10:47:38.565Z,97906.34
2022-11-05T10:50:14.348Z,97913.44
2022-11-05T10:52:58.706Z,97910.19
2022-11-05T10:55:32.287Z,97911.88
2022-11-05T10:58:17.265Z,97912.13
2022-11-05T11:01:07.336Z,97913.50
2022-11-05T11:03:43.268Z,97912.53
2022-11-05T11:06:26.346Z,97909.84
2022-11-05T11:08:59.780Z,97905.25
2022-11-05T11:11:34.141Z,97895.22
2022-11-05T11:14:08.925Z,97899.47
2022-11-05T11:16:44.055Z,97898.00
2022-11-05T11:19:31.893Z,97899.59
2022-11-05T11:22:29.066Z,97900.56
2022-11-05T11:24:59.638Z,97889.31
2022-11-05T11:27:31.795Z,97887.84
2022-11-05T11:30:04.259Z,97896.53
2022-11-05T11:32:41.340Z,97890.19
2022-11-05T11:35:25.691Z,97889.00
2022-11-05T11:37:58.622Z,97897.53
2022-11-05T11:40:34.645Z,97897.00
2022-11-05T11:43:14.941Z,97906.38
2022-11-05T11:45:51.011Z,97893.28
2022-11-05T11:48:27.702Z,97886.47
2022-11-05T11:51:00.017Z,97888.59
2022-11-05T11:53:36.653Z,97894.25
2022-11-05T11:56:20.266Z,97891.59
2022-11-05T11:58:53.886Z,97900.50
2022-11-05T12:02:10.113Z,97901.91
2022-11-05T12:05:03.798Z,97913.81
2022-11-05T12:07:53.061Z,97907.34
2022-11-05T12:10:39.355Z,97917.13
2022-11-05T12:13:57.736Z,97916.09
2022-11-05T12:16:46.623Z,97921.94
2022-11-05T12:19:30.726Z,97921.34
2022-11-05T12:22:18.912Z,97922.31
2022-11-05T12:25:16.485Z,97928.06
2022-11-05T12:28:04.266Z,97922.59
2022-11-05T12:30:44.986Z,97926.03
2022-11-05T12:33:42.423Z,97924.59
2022-11-05T12:36:26.157Z,97920.34
2022-11-05T12:39:36.407Z,97926.63
2022-11-05T12:42:20.397Z,97927.44
2022-11-05T12:45:02.097Z,97925.94
2022-11-05T12:47:53.923Z,97925.88
2022-11-05T12:50:33.514Z,97921.19
2022-11-05T12:53:36.451Z,97927.03
2022-11-05T12:56:18.582Z,97925.88
2022-11-05T12:58:55.519Z,97930.75
2022-11-05T13:01:33.769Z,97931.53
2022-11-05T13:04:08.933Z,97936.78
2022-11-05T13:06:43.141Z,97932.38
2022-11-05T13:09:19.523Z,97927.75
2022-11-05T13:11:57.618Z,97932.13
2022-11-05T13:14:31.997Z,97925.69
2022-11-05T13:17:08.047Z,97937.34
2022-11-05T13:19:44.392Z,97932.25
2022-11-05T13:22:27.320Z,97935.00
2022-11-05T13:25:03.678Z,97928.28
2022-11-05T13:27:54.830Z,97934.88
2022-11-05T13:30:28.372Z,97922.06
2022-11-05T13:33:05.147Z,97923.19
2022-11-05T13:35:43.511Z,97935.63
2022-11-05T13:38:40.432Z,97927.31
2022-11-05T13:41:28.041Z,97930.44
2022-11-05T13:44:13.550Z,97928.75
2022-11-05T13:46:57.560Z,97929.59
2022-11-05T13:49:42.247Z,97937.69
2022-11-05T13:52:24.642Z,97939.75
2022-11-05T13:55:18.303Z,97935.63
2022-11-05T13:58:00.374Z,97945.78
2022-11-05T14:00:35.821Z,97948.50
2022-11-05T14:03:08.517Z,97958.66
2022-11-05T14:05:40.387Z,97956.78
2022-11-05T14:08:12.936Z,97965.69
2022-11-05T14:10:45.042Z,97964.16
2022-11-05T14:13:23.825Z,97969.41
2022-11-05T14:16:05.804Z,97966.25
2022-11-05T14:18:41.775Z,97959.91
2022-11-05T14:21:33.869Z,97964.78
2022-11-05T14:24:22.267Z,97964.38
2022-11-05T14:27:30.706Z,97967.25
2022-11-05T14:30:01.023Z,97964.78
2022-11-05T14:32:46.132Z,97961.50
2022-11-05T14:35:38.912Z,97959.72
2022-11-05T14:38:18.903Z,97956.19
2022-11-05T14:40:49.552Z,97966.81
2022-11-05T14:43:24.830Z,97962.66
2022-11-05T14:46:00.687Z,97962.56
2022-11-05T14:48:40.755Z,97961.13
2022-11-05T14:51:27.857Z,97973.41
2022-11-05T14:54:04.195Z,97971.38
2022-11-05T14:56:47.765Z,97984.00
2022-11-05T14:59:56.897Z,97989.53
2022-11-05T15:02:31.006Z,97986.44
2022-11-05T15:05:51.886Z,97994.19
2022-11-05T15:08:35.354Z,97988.19
2022-11-05T15:11:16.653Z,97993.19
2022-11-05T15:14:01.734Z,97991.72
2022-11-05T15:16:38.281Z,97997.44
2022-11-05T15:19:18.843Z,98007.31
2022-11-05T15:21:54.863Z,98002.00
2022-11-05T15:24:28.209Z,97996.81
2022-11-05T15:27:11.387Z,97995.94
2022-11-05T15:29:43.101Z,97998.97
2022-11-05T15:32:20.260Z,97999.38
2022-11-05T15:35:01.051Z,97996.28
2022-11-05T15:37:37.053Z,98004.50
2022-11-05T15:40:30.212Z,98004.69
2022-11-05T15:43:27.228Z,98009.31
2022-11-05T15:46:20.739Z,98018.09
2022-11-05T15:48:56.681Z,98015.03
2022-11-05T15:51:32.087Z,98017.22
2022-11-05T15:54:29.053Z,98019.47
2022-11-05T15:57:05.417Z,98024.69
2022-11-05T15:59:35.795Z,98022.56
2022-11-05T16:02:27.155Z,98027.09
2022-11-05T16:04:58.537Z,98028.38
2022-11-05T16:07:31.655Z,98035.50
2022-11-05T16:10:12.525Z,98036.28
2022-11-05T16:12:42.711Z,98037.25
2022-11-05T16:15:26.587Z,98039.00
2022-11-05T16:18:01.143Z,98031.38
2022-11-05T16:20:36.097Z,98042.34
2022-11-05T16:23:09.213Z,98047.28
2022-11-05T16:25:44.809Z,98041.91
2022-11-05T16:28:25.062Z,98046.38
2022-11-05T16:31:00.767Z,98053.59
2022-11-05T16:33:38.217Z,98051.91
2022-11-05T16:36:11.270Z,98057.00
2022-11-05T16:38:41.762Z,98056.38
2022-11-05T16:41:18.164Z,98063.31
2022-11-05T16:43:55.840Z,98060.38
2022-11-05T16:46:29.331Z,98061.78
2022-11-05T16:49:00.034Z,98066.72
2022-11-05T16:51:31.425Z,98071.31
2022-11-05T16:54:01.537Z,98064.38
2022-11-05T16:56:34.599Z,98065.94
2022-11-05T16:59:05.943Z,98073.31
2022-11-05T17:01:37.604Z,98072.06
2022-11-05T17:04:07.795Z,98068.22
2022-11-05T17:06:37.884Z,98066.25
2022-11-05T17:09:08.052Z,98075.28
2022-11-05T17:11:40.959Z,98073.00
2022-11-05T17:14:15.553Z,98084.50
2022-11-05T17:16:45.755Z,98075.75
2022-11-05T17:19:18.775Z,98085.59
2022-11-05T17:21:50.187Z,98088.03
2022-11-05T17:24:20.410Z,98087.28
2022-11-05T17:26:53.246Z,98091.56
2022-11-05T17:29:25.131Z,98096.34
2022-11-05T17:31:55.362Z,98097.25
2022-11-05T17:34:25.490Z,98096.59
2022-11-05T17:36:55.481Z,98097.81
2022-11-05T17:39:31.398Z,98098.44
2022-11-05T17:42:04.426Z,98102.88
2022-11-05T17:44:34.753Z,98101.94
2022-11-05T17:47:05.075Z,98105.78
2022-11-05T17:49:35.122Z,98104.50
2022-11-05T17:52:05.180Z,98115.22
2022-11-05T17:54:35.312Z,98105.56
2022-11-05T17:57:11.824Z,98117.06
2022-11-05T17:59:44.691Z,98124.59
2022-11-05T18:02:15.671Z,98123.19
2022-11-05T18:04:45.927Z,98123.94
2022-11-05T18:07:16.031Z,98127.19
2022-11-05T18:09:46.584Z,98123.00
2022-11-05T18:12:19.666Z,98130.03
2022-11-05T18:14:50.037Z,98137.22
2022-11-05T18:17:20.132Z,98134.16
2022-11-05T18:19:52.911Z,98142.13
2022-11-05T18:22:23.369Z,98137.66
2022-11-05T18:24:55.801Z,98142.06
2022-11-05T18:27:28.611Z,98138.09
2022-11-05T18:29:58.714Z,98144.97
2022-11-05T18:32:29.240Z,98139.59
2022-11-05T18:34:59.432Z,98136.50
2022-11-05T18:37:29.609Z,98148.91
2022-11-05T18:39:59.885Z,98143.84
2022-11-05T18:42:34.502Z,98139.66
2022-11-05T18:45:04.525Z,98139.19
2022-11-05T18:47:35.539Z,98137.69
2022-11-05T18:50:09.505Z,98138.25
2022-11-05T18:52:39.788Z,98140.69
2022-11-05T18:55:11.969Z,98142.34
2022-11-05T18:57:44.803Z,98146.03
2022-11-05T19:00:17.153Z,98138.97
2022-11-05T19:02:49.589Z,98143.06
2022-11-05T19:05:28.999Z,98146.28
2022-11-05T19:08:00.136Z,98139.34
2022-11-05T19:10:31.406Z,98137.03
2022-11-05T19:13:04.302Z,98135.16
2022-11-05T19:15:34.799Z,98134.84
2022-11-05T19:18:04.855Z,98147.53
2022-11-05T19:20:37.968Z,98133.13
2022-11-05T19:23:08.600Z,98135.09
2022-11-05T19:25:41.104Z,98134.34
2022-11-05T19:28:14.241Z,98147.50
2022-11-05T19:30:44.741Z,98145.16
2022-11-05T19:33:14.853Z,98146.53
2022-11-05T19:35:45.184Z,98149.72
2022-11-05T19:38:15.449Z,98145.53
2022-11-05T19:40:50.879Z,98151.84
2022-11-05T19:43:23.686Z,98160.13
2022-11-05T19:45:53.922Z,98155.66
2022-11-05T19:48:25.290Z,98153.03
2022-11-05T19:50:56.145Z,98166.84
2022-11-05T19:53:26.419Z,98163.66
2022-11-05T19:55:56.679Z,98154.34
2022-11-05T19:58:29.441Z,98162.94
2022-11-05T20:00:59.501Z,98164.28
2022-11-05T20:03:29.888Z,98174.69
2022-11-05T20:06:06.399Z,98176.66
2022-11-05T20:08:53.043Z,98172.78
2022-11-05T20:11:27.207Z,98180.09
2022-11-05T20:14:00.375Z,98186.19
2022-11-05T20:16:36.970Z,98182.44
2022-11-05T20:19:08.243Z,98186.53
2022-11-05T20:21:38.820Z,98183.75
2022-11-05T20:24:10.237Z,98175.78
2022-11-05T20:26:40.864Z,98177.03
2022-11-05T20:29:13.761Z,98178.69
2022-11-05T20:31:43.955Z,98176.81
2022-11-05T20:34:14.208Z,98170.53
2022-11-05T20:36:44.351Z,98178.03
2022-11-05T20:39:14.875Z,98179.47
2022-11-05T20:41:45.201Z,98167.66
2022-11-05T20:44:17.958Z,98167.09
2022-11-05T20:46:48.108Z,98165.81
2022-11-05T20:49:24.049Z,98161.75
2022-11-05T20:51:55.764Z,98161.63
2022-11-05T20:54:26.170Z,98174.94
2022-11-05T20:56:56.722Z,98166.38
2022-11-05T20:59:29.563Z,98177.72
2022-11-05T21:01:59.700Z,98182.34
2022-11-05T21:04:30.468Z,98181.56
2022-11-05T21:07:00.852Z,98183.69
2022-11-05T21:09:31.257Z,98181.69
2022-11-05T21:12:13.517Z,98186.75
2022-11-05T21:14:46.624Z,98191.72
2022-11-05T21:17:16.742Z,98194.38
2022-11-05T21:19:47.593Z,98189.66
2022-11-05T21:22:18.137Z,98199.56
2022-11-05T21:24:48.439Z,98197.25
2022-11-05T21:27:18.525Z,98194.25
2022-11-05T21:29:51.294Z,98198.91
2022-11-05T21:32:21.443Z,98205.28
2022-11-05T21:34:51.715Z,98201.75
2022-11-05T21:37:21.830Z,98195.16
2022-11-05T21:39:55.035Z,98189.09
2022-11-05T21:42:25.260Z,98187.53
2022-11-05T21:45:00.611Z,98184.34
2022-11-05T21:47:31.808Z,98190.94
2022-11-05T21:50:02.092Z,98182.94
2022-11-05T21:52:44.726Z,98177.41
2022-11-05T21:55:30.342Z,98185.00
2022-11-05T21:58:27.572Z,98189.19
2022-11-05T22:01:00.558Z,98184.78
2022-11-05T22:03:31.484Z,98180.47
2022-11-05T22:06:01.880Z,98179.47
2022-11-05T22:08:32.204Z,98175.94
2022-11-05T22:11:06.530Z,98175.50
2022-11-05T22:13:36.773Z,98174.09
2022-11-05T22:16:11.414Z,98175.41
2022-11-05T22:18:41.565Z,98167.47
2022-11-05T22:21:11.722Z,98178.59
2022-11-05T22:23:41.841Z,98169.56
2022-11-05T22:26:12.117Z,98171.22
2022-11-05T22:28:42.239Z,98167.03
2022-11-05T22:31:19.117Z,98162.09
2022-11-05T22:33:49.535Z,98159.13
2022-11-05T22:36:19.840Z,98151.19
2022-11-05T22:38:50.118Z,98155.94
2022-11-05T22:41:23.629Z,98159.31
2022-11-05T22:43:53.802Z,98172.75
2022-11-05T22:46:29.744Z,98167.25
2022-11-05T22:49:00.391Z,98174.00
2022-11-05T22:51:34.907Z,98172.75
2022-11-05T22:54:06.268Z,98176.97
2022-11-05T22:56:40.797Z,98183.34
2022-11-05T22:59:17.080Z,98193.81
2022-11-05T23:01:50.150Z,98182.16
2022-11-05T23:04:20.332Z,98187.78
2022-11-05T23:07:02.853Z,98176.19
2022-11-05T23:09:48.460Z,98187.66
2022-11-05T23:12:26.423Z,98177.28
2022-11-05T23:14:58.137Z,98180.25
2022-11-05T23:17:44.491Z,98178.63
2022-11-05T23:20:30.483Z,98183.47
2022-11-05T23:23:13.847Z,98180.28
2022-11-05T23:25:44.143Z,98185.03
2022-11-05T23:28:15.615Z,98179.16
2022-11-05T23:30:59.729Z,98185.25
2022-11-05T23:33:40.975Z,98181.94
2022-11-05T23:36:27.616Z,98179.94
2022-11-05T23:38:57.926Z,98180.28
2022-11-05T23:41:40.472Z,98181.81
2022-11-05T23:44:24.668Z,98181.50
2022-11-05T23:47:10.231Z,98185.88
2022-11-05T23:49:43.755Z,98173.88
2022-11-05T23:52:17.117Z,98180.38
2022-11-05T23:54:47.358Z,98178.97
2022-11-05T23:57:17.575Z,98174.00
2022-11-05T23:59:47.697Z,98177.19
